Time;durP1;ratioP1;P1;durP2;ratioP2;P2;SDS_P1;SDS_P2;PMS_P1;PMS_P2;Temp;Humidity;BMP_temperature;BMP_pressure;BME280_temperature;BME280_humidity;BME280_pressure;Samples;Min_cycle;Max_cycle;Signal;HPM_P1;HPM_P2
2022/04/29 00:00:51;;;;;;;;;;;24.00;37.40;;;;;;4926953;29;19969;-69
2022/04/29 00:03:18;;;;;;;;;;;23.90;37.40;;;;;;4910132;29;19996;-69
2022/04/29 00:05:46;;;;;;;;;;;23.90;37.60;;;;;;4928093;28;20363;-73
2022/04/29 00:08:13;;;;;;;;;;;23.90;37.40;;;;;;4929971;28;20402;-72
2022/04/29 00:10:41;;;;;;;;;;;23.90;37.50;;;;;;4930286;28;19958;-73
2022/04/29 00:13:10;;;;;;;;;;;23.90;37.60;;;;;;4930116;28;20297;-72
2022/04/29 00:15:37;;;;;;;;;;;23.90;37.60;;;;;;4913498;29;19946;-73
2022/04/29 00:18:04;;;;;;;;;;;23.90;37.70;;;;;;4929524;28;19962;-73
2022/04/29 00:20:31;;;;;;;;;;;23.80;37.60;;;;;;4925639;29;19930;-73
2022/04/29 00:22:58;;;;;;;;;;;23.80;37.70;;;;;;4929776;29;19931;-72
2022/04/29 00:25:25;;;;;;;;;;;23.80;37.70;;;;;;4929664;29;19981;-73
2022/04/29 00:27:52;;;;;;;;;;;23.80;37.70;;;;;;4929724;29;19931;-69
2022/04/29 00:30:19;;;;;;;;;;;23.80;37.70;;;;;;4912404;29;20379;-73
2022/04/29 00:32:47;;;;;;;;;;;23.80;37.70;;;;;;4929774;28;19927;-73
2022/04/29 00:35:14;;;;;;;;;;;23.80;37.80;;;;;;4929777;28;19926;-72
2022/04/29 00:37:43;;;;;;;;;;;23.80;37.80;;;;;;4929569;29;19935;-73
2022/04/29 00:40:14;;;;;;;;;;;23.80;37.80;;;;;;4929391;29;19977;-73
2022/04/29 00:42:41;;;;;;;;;;;23.80;37.70;;;;;;4929050;28;20075;-73
2022/04/29 00:45:08;;;;;;;;;;;23.80;37.70;;;;;;4929268;28;19974;-73
2022/04/29 00:47:35;;;;;;;;;;;23.80;37.70;;;;;;4929616;29;20484;-72
2022/04/29 00:50:02;;;;;;;;;;;23.80;37.70;;;;;;4929404;28;19981;-73
2022/04/29 00:52:30;;;;;;;;;;;23.80;38.20;;;;;;4925586;29;19927;-73
2022/04/29 00:55:02;;;;;;;;;;;23.80;37.70;;;;;;4929095;29;20417;-73
2022/04/29 00:57:32;;;;;;;;;;;23.90;37.70;;;;;;4929557;29;19926;-72
2022/04/29 01:00:04;;;;;;;;;;;23.80;37.70;;;;;;4928874;29;20414;-74
2022/04/29 01:02:31;;;;;;;;;;;23.80;37.70;;;;;;4929910;28;20284;-73
2022/04/29 01:05:02;;;;;;;;;;;23.80;37.70;;;;;;4928575;29;19927;-73
2022/04/29 01:07:29;;;;;;;;;;;23.80;37.70;;;;;;4929119;29;19966;-72
2022/04/29 01:09:56;;;;;;;;;;;23.80;37.70;;;;;;4929198;29;19996;-73
2022/04/29 01:12:24;;;;;;;;;;;23.80;37.70;;;;;;4929324;29;19927;-73
2022/04/29 01:14:52;;;;;;;;;;;23.80;37.70;;;;;;4912329;29;19965;-73
2022/04/29 01:17:20;;;;;;;;;;;23.80;37.70;;;;;;4929548;29;19927;-73
2022/04/29 01:19:47;;;;;;;;;;;23.80;37.70;;;;;;4928962;28;20371;-73
2022/04/29 01:22:13;;;;;;;;;;;23.80;37.70;;;;;;4929079;29;19927;-73
2022/04/29 01:24:41;;;;;;;;;;;23.80;37.80;;;;;;4924660;28;19927;-73
2022/04/29 01:27:10;;;;;;;;;;;23.80;37.80;;;;;;4929004;29;20103;-73
2022/04/29 01:29:39;;;;;;;;;;;23.70;37.70;;;;;;4929033;28;19966;-71
2022/04/29 01:32:08;;;;;;;;;;;23.70;37.80;;;;;;4928993;29;19927;-73
2022/04/29 01:34:36;;;;;;;;;;;23.70;37.80;;;;;;4929316;29;20570;-72
2022/04/29 01:37:03;;;;;;;;;;;23.70;37.80;;;;;;4928529;29;19931;-72
2022/04/29 01:39:31;;;;;;;;;;;23.70;37.80;;;;;;4928787;29;19974;-73
2022/04/29 01:41:58;;;;;;;;;;;23.70;37.80;;;;;;4929119;29;20430;-73
2022/04/29 01:44:25;;;;;;;;;;;23.70;37.90;;;;;;4928210;28;19969;-73
2022/04/29 01:46:52;;;;;;;;;;;23.70;37.90;;;;;;4928670;29;20614;-73
2022/04/29 01:49:19;;;;;;;;;;;23.60;37.80;;;;;;4928304;29;19927;-72
2022/04/29 01:51:46;;;;;;;;;;;23.60;37.90;;;;;;4928852;29;19939;-73
2022/04/29 01:54:13;;;;;;;;;;;23.60;37.90;;;;;;4929088;29;20280;-73
2022/04/29 01:56:40;;;;;;;;;;;23.70;38.00;;;;;;4927762;29;19926;-73
2022/04/29 01:59:08;;;;;;;;;;;23.60;37.90;;;;;;4932137;28;19938;-73
2022/04/29 02:01:36;;;;;;;;;;;23.60;37.90;;;;;;4931695;29;19958;-73
2022/04/29 02:04:03;;;;;;;;;;;23.60;38.00;;;;;;4931460;28;19941;-73
2022/04/29 02:06:30;;;;;;;;;;;23.60;38.00;;;;;;4931960;29;19961;-73
2022/04/29 02:08:57;;;;;;;;;;;23.60;38.10;;;;;;4931908;29;19926;-73
2022/04/29 02:11:24;;;;;;;;;;;23.50;38.10;;;;;;4931632;29;19957;-73
2022/04/29 02:13:52;;;;;;;;;;;23.50;38.10;;;;;;4931725;29;19927;-73
2022/04/29 02:16:19;;;;;;;;;;;23.60;38.20;;;;;;4931912;29;20060;-73
2022/04/29 02:18:46;;;;;;;;;;;23.50;38.20;;;;;;4931688;29;19962;-73
2022/04/29 02:21:13;;;;;;;;;;;23.50;38.20;;;;;;4931525;29;19949;-73
2022/04/29 02:23:40;;;;;;;;;;;23.50;38.20;;;;;;4931654;28;20064;-73
2022/04/29 02:26:07;;;;;;;;;;;23.50;38.20;;;;;;4929948;28;20002;-73
2022/04/29 02:28:35;;;;;;;;;;;23.50;38.30;;;;;;4928882;29;19980;-73
2022/04/29 02:31:02;;;;;;;;;;;23.50;38.30;;;;;;4931627;29;19982;-73
2022/04/29 02:33:29;;;;;;;;;;;23.50;38.20;;;;;;4931094;29;20345;-73
2022/04/29 02:35:56;;;;;;;;;;;23.50;38.20;;;;;;4931118;28;20430;-73
2022/04/29 02:38:23;;;;;;;;;;;23.50;38.10;;;;;;4930963;29;20026;-73
2022/04/29 02:40:50;;;;;;;;;;;23.50;38.10;;;;;;4931192;28;19985;-73
2022/04/29 02:43:18;;;;;;;;;;;23.60;38.10;;;;;;4931441;28;20352;-73
2022/04/29 02:45:46;;;;;;;;;;;23.60;38.00;;;;;;4931483;28;19977;-73
2022/04/29 02:48:15;;;;;;;;;;;23.60;38.00;;;;;;4931214;29;19927;-73
2022/04/29 02:50:42;;;;;;;;;;;23.60;38.00;;;;;;4930922;29;20338;-73
2022/04/29 02:53:09;;;;;;;;;;;23.60;38.00;;;;;;4931541;28;20363;-73
2022/04/29 02:55:36;;;;;;;;;;;23.60;38.00;;;;;;4931131;28;19973;-73
2022/04/29 02:58:03;;;;;;;;;;;23.60;38.00;;;;;;4911121;29;19935;-73
2022/04/29 03:00:30;;;;;;;;;;;23.60;38.00;;;;;;4929261;29;19966;-73
2022/04/29 03:02:57;;;;;;;;;;;23.60;38.00;;;;;;4931094;29;19926;-74
2022/04/29 03:05:26;;;;;;;;;;;23.60;38.00;;;;;;4930141;29;20000;-73
2022/04/29 03:07:53;;;;;;;;;;;23.50;38.00;;;;;;4931227;29;19931;-73
2022/04/29 03:10:20;;;;;;;;;;;23.60;38.10;;;;;;4930707;28;19927;-73
2022/04/29 03:12:46;;;;;;;;;;;23.50;38.10;;;;;;4931118;29;19970;-73
2022/04/29 03:15:17;;;;;;;;;;;23.50;38.10;;;;;;4930847;29;19988;-73
2022/04/29 03:20:35;;;;;;;;;;;23.50;38.20;;;;;;4930713;28;19927;-70
2022/04/29 03:23:02;;;;;;;;;;;23.50;38.20;;;;;;4930499;28;19931;-73
2022/04/29 03:25:29;;;;;;;;;;;23.50;38.30;;;;;;4930512;29;19939;-73
2022/04/29 03:27:56;;;;;;;;;;;23.50;38.30;;;;;;4930747;29;19934;-73
2022/04/29 03:30:24;;;;;;;;;;;23.50;38.30;;;;;;4926373;29;19996;-73
2022/04/29 03:32:54;;;;;;;;;;;23.50;38.40;;;;;;4931273;29;19927;-73
2022/04/29 03:35:22;;;;;;;;;;;23.50;38.40;;;;;;4936860;28;20029;-73
2022/04/29 03:37:51;;;;;;;;;;;23.50;38.40;;;;;;4961333;28;19934;-74
2022/04/29 03:40:21;;;;;;;;;;;23.50;38.40;;;;;;4959191;28;19926;-73
2022/04/29 03:42:49;;;;;;;;;;;23.50;38.40;;;;;;4969110;28;19979;-73
2022/04/29 03:45:16;;;;;;;;;;;23.50;38.30;;;;;;4968364;28;19930;-73
2022/04/29 03:47:44;;;;;;;;;;;23.50;38.30;;;;;;4935805;28;20194;-73
2022/04/29 03:50:11;;;;;;;;;;;23.50;38.20;;;;;;4930305;29;19926;-73
2022/04/29 03:52:44;;;;;;;;;;;23.50;38.20;;;;;;4930502;28;19953;-73
2022/04/29 03:55:12;;;;;;;;;;;23.50;38.10;;;;;;4930032;29;19985;-73
2022/04/29 03:57:39;;;;;;;;;;;23.50;38.10;;;;;;4930348;28;19930;-73
2022/04/29 04:00:06;;;;;;;;;;;23.40;38.00;;;;;;4913052;29;19996;-73
2022/04/29 04:02:33;;;;;;;;;;;23.40;38.10;;;;;;4925907;28;20240;-73
2022/04/29 04:05:01;;;;;;;;;;;23.40;38.10;;;;;;4930049;28;19931;-73
2022/04/29 04:07:28;;;;;;;;;;;23.40;38.30;;;;;;4930274;28;19926;-73
2022/04/29 04:09:55;;;;;;;;;;;23.40;38.10;;;;;;4913301;29;19927;-73
2022/04/29 04:12:22;;;;;;;;;;;23.40;38.10;;;;;;4929870;28;19993;-73
2022/04/29 04:14:49;;;;;;;;;;;23.40;38.10;;;;;;4930017;29;19931;-73
2022/04/29 04:17:16;;;;;;;;;;;23.40;38.10;;;;;;4929464;28;19981;-73
2022/04/29 04:19:43;;;;;;;;;;;23.30;38.10;;;;;;4929958;28;19985;-73
2022/04/29 04:22:10;;;;;;;;;;;23.40;38.20;;;;;;4929750;28;20375;-73
2022/04/29 04:24:37;;;;;;;;;;;23.40;38.10;;;;;;4932173;28;19975;-72
2022/04/29 04:27:04;;;;;;;;;;;23.40;38.10;;;;;;4932023;28;19931;-72
2022/04/29 04:29:32;;;;;;;;;;;23.40;38.00;;;;;;4930108;28;20375;-73
2022/04/29 04:31:59;;;;;;;;;;;23.50;38.00;;;;;;4929821;29;20341;-73
2022/04/29 04:37:13;;;;;;;;;;;23.50;37.90;;;;;;4929344;29;19973;-73
2022/04/29 04:39:40;;;;;;;;;;;23.60;37.80;;;;;;4929902;29;19950;-73
2022/04/29 04:42:08;;;;;;;;;;;23.60;37.80;;;;;;4929574;28;19973;-73
2022/04/29 04:44:35;;;;;;;;;;;23.60;37.70;;;;;;4929260;28;19981;-73
2022/04/29 04:47:03;;;;;;;;;;;23.60;37.70;;;;;;4929364;29;19957;-72
2022/04/29 04:49:30;;;;;;;;;;;23.60;37.60;;;;;;4929031;28;20384;-73
2022/04/29 04:51:57;;;;;;;;;;;23.60;37.60;;;;;;4929578;29;20406;-73
2022/04/29 04:54:28;;;;;;;;;;;23.60;37.60;;;;;;4928621;29;19927;-73
2022/04/29 04:56:55;;;;;;;;;;;23.70;37.60;;;;;;4937435;29;19930;-72
2022/04/29 04:59:22;;;;;;;;;;;23.70;37.60;;;;;;4938153;28;19927;-73
2022/04/29 05:01:55;;;;;;;;;;;23.70;37.50;;;;;;4935025;29;19927;-73
2022/04/29 05:04:22;;;;;;;;;;;23.70;37.50;;;;;;4928349;28;20045;-73
2022/04/29 05:06:51;;;;;;;;;;;23.70;37.50;;;;;;4947517;28;19926;-72
2022/04/29 05:09:18;;;;;;;;;;;23.70;37.20;;;;;;4936761;28;19927;-73
2022/04/29 05:11:45;;;;;;;;;;;23.80;37.10;;;;;;4948293;29;19930;-72
2022/04/29 05:14:32;;;;;;;;;;;23.80;37.00;;;;;;4946570;28;19973;-68
2022/04/29 05:20:03;;;;;;;;;;;23.80;36.80;;;;;;4933743;29;19927;-72
2022/04/29 05:22:35;;;;;;;;;;;23.90;36.70;;;;;;4935960;29;19922;-64
2022/04/29 05:25:03;;;;;;;;;;;23.90;36.60;;;;;;4949656;29;19926;-76
2022/04/29 05:27:30;;;;;;;;;;;23.90;36.70;;;;;;4948847;28;19922;-70
2022/04/29 05:33:31;;;;;;;;;;;23.90;36.90;;;;;;4948037;28;19934;-70
2022/04/29 05:35:58;;;;;;;;;;;24.00;37.00;;;;;;4947451;28;19964;-69
2022/04/29 05:42:14;;;;;;;;;;;24.00;37.10;;;;;;4945327;29;19927;-69
2022/04/29 05:52:47;;;;;;;;;;;24.10;37.90;;;;;;4939085;29;19921;-69
2022/04/29 05:55:14;;;;;;;;;;;24.10;38.00;;;;;;4938626;29;20387;-70
2022/04/29 05:58:01;;;;;;;;;;;24.10;37.90;;;;;;4938004;29;19963;-71
2022/04/29 06:00:28;;;;;;;;;;;24.20;38.30;;;;;;4938464;29;19927;-70
2022/04/29 06:03:28;;;;;;;;;;;24.20;38.30;;;;;;4939054;28;19946;-72
2022/04/29 06:05:55;;;;;;;;;;;24.30;38.00;;;;;;4953000;28;19958;-77
2022/04/29 06:08:22;;;;;;;;;;;24.30;39.10;;;;;;4957874;29;20378;-73
2022/04/29 06:10:49;;;;;;;;;;;24.30;38.20;;;;;;4957445;29;19973;-70
2022/04/29 06:13:16;;;;;;;;;;;24.40;38.20;;;;;;4958022;29;19926;-73
2022/04/29 06:19:29;;;;;;;;;;;24.40;39.80;;;;;;5129500;23;19934;-76
2022/04/29 06:21:56;;;;;;;;;;;24.40;39.90;;;;;;4938386;29;20422;-72
2022/04/29 06:24:23;;;;;;;;;;;24.50;39.60;;;;;;4921744;29;19927;-72
2022/04/29 06:26:50;;;;;;;;;;;24.50;39.80;;;;;;4938584;29;20347;-72
2022/04/29 06:29:17;;;;;;;;;;;24.50;39.90;;;;;;4938391;29;19927;-79
2022/04/29 06:35:02;;;;;;;;;;;24.60;39.00;;;;;;4936928;29;19927;-73
2022/04/29 06:37:29;;;;;;;;;;;24.60;39.20;;;;;;4938301;29;19927;-71
2022/04/29 06:39:56;;;;;;;;;;;24.70;39.70;;;;;;4937445;28;20367;-70
2022/04/29 06:42:23;;;;;;;;;;;24.70;39.40;;;;;;4950310;28;19925;-72
2022/04/29 06:44:50;;;;;;;;;;;24.70;38.90;;;;;;4936696;29;20383;-69
2022/04/29 06:47:18;;;;;;;;;;;24.70;39.70;;;;;;4938367;29;19926;-68
2022/04/29 06:49:45;;;;;;;;;;;24.70;38.80;;;;;;4940433;28;19958;-68
2022/04/29 06:52:12;;;;;;;;;;;24.80;39.00;;;;;;4955163;28;19931;-67
2022/04/29 06:54:39;;;;;;;;;;;24.80;38.70;;;;;;4956957;28;19927;-65
2022/04/29 06:57:06;;;;;;;;;;;24.80;38.60;;;;;;4958036;29;20322;-66
2022/04/29 06:59:33;;;;;;;;;;;24.90;38.70;;;;;;4956646;28;19972;-65
2022/04/29 07:02:00;;;;;;;;;;;24.90;39.50;;;;;;4956653;29;19984;-73
2022/04/29 07:04:29;;;;;;;;;;;24.90;39.40;;;;;;4956248;28;19980;-68
2022/04/29 07:06:56;;;;;;;;;;;24.90;38.90;;;;;;4957002;29;20337;-69
2022/04/29 07:09:24;;;;;;;;;;;25.00;38.50;;;;;;4956921;29;19927;-70
2022/04/29 07:12:11;;;;;;;;;;;25.00;38.50;;;;;;4956636;29;19927;-72
2022/04/29 07:14:38;;;;;;;;;;;25.00;38.30;;;;;;4956216;28;19975;-68
2022/04/29 07:17:37;;;;;;;;;;;25.10;38.00;;;;;;4933002;28;20599;-72
2022/04/29 07:20:05;;;;;;;;;;;25.10;38.10;;;;;;4936036;29;19927;-69
2022/04/29 07:22:39;;;;;;;;;;;25.10;38.30;;;;;;4930336;29;19923;-69
2022/04/29 07:28:28;;;;;;;;;;;25.20;38.70;;;;;;4936951;29;20018;-75
2022/04/29 07:30:57;;;;;;;;;;;25.30;38.20;;;;;;4937597;28;19997;-68
2022/04/29 07:33:24;;;;;;;;;;;25.30;38.20;;;;;;4937083;29;19927;-66
2022/04/29 07:47:43;;;;;;;;;;;25.40;37.80;;;;;;4926472;28;19922;-68
2022/04/29 07:50:29;;;;;;;;;;;25.50;37.50;;;;;;4920106;29;20155;-68
2022/04/29 07:52:56;;;;;;;;;;;25.50;37.40;;;;;;4941955;28;19926;-65
2022/04/29 07:55:24;;;;;;;;;;;25.50;37.10;;;;;;4938146;29;19931;-71
2022/04/29 08:01:30;;;;;;;;;;;25.60;37.30;;;;;;4941038;28;19929;-66
2022/04/29 08:07:19;;;;;;;;;;;25.60;37.10;;;;;;4934781;28;19926;-69
2022/04/29 08:09:46;;;;;;;;;;;25.60;37.10;;;;;;4934975;28;20383;-66
2022/04/29 08:12:14;;;;;;;;;;;25.70;37.30;;;;;;4937038;28;19981;-70
2022/04/29 08:14:48;;;;;;;;;;;25.60;37.60;;;;;;5092681;27;19921;-67
2022/04/29 08:17:16;;;;;;;;;;;25.70;37.50;;;;;;5077014;28;19932;-72
2022/04/29 08:19:43;;;;;;;;;;;25.70;37.20;;;;;;5070715;28;20400;-69
2022/04/29 08:22:10;;;;;;;;;;;25.70;37.10;;;;;;5071050;28;19940;-72
2022/04/29 08:24:37;;;;;;;;;;;25.80;36.90;;;;;;5074273;28;20273;-71
2022/04/29 08:27:05;;;;;;;;;;;25.80;36.50;;;;;;5071105;28;19932;-71
2022/04/29 08:29:32;;;;;;;;;;;25.80;36.70;;;;;;5071611;28;19936;-72
2022/04/29 08:31:58;;;;;;;;;;;25.90;36.70;;;;;;5081414;28;19932;-73
2022/04/29 08:34:25;;;;;;;;;;;25.90;36.20;;;;;;5070967;28;19964;-75
2022/04/29 08:36:52;;;;;;;;;;;25.90;36.10;;;;;;5066993;28;19940;-71
2022/04/29 08:39:19;;;;;;;;;;;25.90;35.90;;;;;;5069706;28;19936;-72
2022/04/29 08:41:48;;;;;;;;;;;26.00;35.60;;;;;;5070388;28;19960;-67
2022/04/29 08:44:16;;;;;;;;;;;26.00;35.80;;;;;;5073747;28;19925;-71
2022/04/29 08:46:44;;;;;;;;;;;26.00;35.70;;;;;;5066840;28;20200;-72
2022/04/29 08:49:11;;;;;;;;;;;26.10;35.40;;;;;;5067754;28;19993;-73
2022/04/29 08:51:38;;;;;;;;;;;26.10;35.30;;;;;;5067422;28;19940;-68
2022/04/29 08:54:05;;;;;;;;;;;26.10;35.60;;;;;;5071308;28;19932;-64
2022/04/29 08:59:22;;;;;;;;;;;26.20;34.10;;;;;;5076004;28;19925;-68
2022/04/29 09:01:50;;;;;;;;;;;26.10;33.20;;;;;;5068570;28;19939;-67
2022/04/29 09:04:18;;;;;;;;;;;26.10;33.60;;;;;;5071582;28;19935;-65
2022/04/29 09:06:47;;;;;;;;;;;26.10;34.00;;;;;;5066777;28;19968;-66
2022/04/29 09:09:14;;;;;;;;;;;26.10;34.30;;;;;;5066042;28;20335;-71
2022/04/29 09:11:41;;;;;;;;;;;26.20;34.50;;;;;;5072296;28;20346;-67
2022/04/29 09:14:24;;;;;;;;;;;26.20;34.50;;;;;;5084139;28;19932;-69
2022/04/29 09:16:51;;;;;;;;;;;26.30;34.80;;;;;;5097551;28;19924;-73
2022/04/29 09:19:32;;;;;;;;;;;26.30;34.80;;;;;;5091173;28;19932;-68
2022/04/29 09:22:04;;;;;;;;;;;26.40;34.80;;;;;;5095291;28;19931;-67
2022/04/29 09:24:31;;;;;;;;;;;26.40;34.60;;;;;;5086968;28;19928;-75
2022/04/29 09:27:01;;;;;;;;;;;26.50;34.70;;;;;;5075955;28;20232;-70
2022/04/29 09:29:29;;;;;;;;;;;26.50;34.40;;;;;;5075718;28;20307;-69
2022/04/29 09:31:58;;;;;;;;;;;26.50;34.00;;;;;;5078108;28;19947;-70
2022/04/29 09:34:44;;;;;;;;;;;26.60;33.90;;;;;;5077289;28;19928;-67
2022/04/29 09:37:15;;;;;;;;;;;26.60;33.90;;;;;;5062301;28;20404;-66
2022/04/29 09:39:53;;;;;;;;;;;26.60;33.70;;;;;;5073802;28;19931;-68
2022/04/29 09:42:20;;;;;;;;;;;26.70;33.40;;;;;;5072102;28;19938;-69
2022/04/29 09:44:47;;;;;;;;;;;26.70;33.30;;;;;;5072990;28;20445;-70
2022/04/29 09:47:15;;;;;;;;;;;26.70;33.30;;;;;;5082070;28;19938;-68
2022/04/29 09:49:56;;;;;;;;;;;26.70;33.00;;;;;;5072750;28;20095;-70
2022/04/29 09:52:23;;;;;;;;;;;26.70;32.90;;;;;;5074902;28;20375;-70
2022/04/29 09:54:50;;;;;;;;;;;26.80;31.20;;;;;;5078385;28;20032;-70
2022/04/29 09:57:18;;;;;;;;;;;26.70;29.40;;;;;;5090037;28;19967;-63
2022/04/29 09:59:47;;;;;;;;;;;26.60;29.60;;;;;;5078787;28;19937;-75
2022/04/29 10:02:15;;;;;;;;;;;26.50;29.50;;;;;;5087447;28;20268;-75
2022/04/29 10:04:44;;;;;;;;;;;26.40;29.70;;;;;;5081448;28;19931;-67
2022/04/29 10:07:14;;;;;;;;;;;26.40;30.10;;;;;;5080547;28;20645;-75
2022/04/29 10:09:44;;;;;;;;;;;26.40;30.50;;;;;;5086943;28;19971;-73
2022/04/29 10:12:16;;;;;;;;;;;26.50;30.80;;;;;;5072333;28;20378;-73
2022/04/29 10:14:44;;;;;;;;;;;26.50;31.00;;;;;;5078397;28;19942;-72
2022/04/29 10:22:51;;;;;;;;;;;26.60;31.60;;;;;;5083773;28;19940;-71
2022/04/29 10:25:20;;;;;;;;;;;26.60;31.90;;;;;;5083753;28;19977;-72
2022/04/29 10:27:50;;;;;;;;;;;26.70;32.20;;;;;;5076439;28;20404;-70
2022/04/29 10:30:24;;;;;;;;;;;26.70;32.20;;;;;;5077424;28;19928;-71
2022/04/29 10:32:59;;;;;;;;;;;26.70;32.10;;;;;;5080333;28;19925;-70
2022/04/29 10:35:47;;;;;;;;;;;26.70;32.10;;;;;;5077422;28;19931;-73
2022/04/29 10:38:40;;;;;;;;;;;26.80;32.00;;;;;;5086925;28;19971;-72
2022/04/29 10:41:09;;;;;;;;;;;26.80;32.00;;;;;;5081801;28;19928;-72
2022/04/29 10:43:38;;;;;;;;;;;26.90;32.00;;;;;;5061514;28;19933;-72
2022/04/29 10:46:26;;;;;;;;;;;26.90;31.90;;;;;;5079030;28;20027;-68
2022/04/29 10:48:54;;;;;;;;;;;26.90;31.80;;;;;;5079315;28;19939;-71
2022/04/29 10:51:41;;;;;;;;;;;26.90;31.80;;;;;;5080582;28;19953;-73
2022/04/29 10:54:08;;;;;;;;;;;26.90;31.80;;;;;;5077288;28;19924;-71
2022/04/29 10:56:36;;;;;;;;;;;27.00;32.10;;;;;;5082206;28;20251;-68
2022/04/29 10:59:15;;;;;;;;;;;27.00;32.70;;;;;;5094548;27;20290;-69
2022/04/29 11:01:48;;;;;;;;;;;27.00;32.20;;;;;;5072886;28;20420;-74
2022/04/29 11:04:35;;;;;;;;;;;27.00;32.10;;;;;;5074661;28;19924;-75
2022/04/29 11:07:03;;;;;;;;;;;27.00;31.80;;;;;;5057636;28;19932;-69
2022/04/29 11:09:31;;;;;;;;;;;27.00;31.80;;;;;;5080004;28;19964;-72
2022/04/29 11:11:58;;;;;;;;;;;27.10;31.70;;;;;;5092455;27;20303;-70
2022/04/29 11:14:26;;;;;;;;;;;27.10;31.60;;;;;;5083251;28;20003;-71
2022/04/29 11:16:55;;;;;;;;;;;27.10;31.40;;;;;;5077520;28;19977;-72
2022/04/29 11:19:26;;;;;;;;;;;27.20;31.50;;;;;;5078492;28;19931;-72
2022/04/29 11:24:44;;;;;;;;;;;27.30;31.20;;;;;;5072675;28;19970;-66
2022/04/29 11:27:12;;;;;;;;;;;27.30;31.40;;;;;;5056908;28;20335;-71
2022/04/29 11:29:46;;;;;;;;;;;27.30;31.40;;;;;;5071396;28;19985;-72
2022/04/29 11:32:14;;;;;;;;;;;27.30;31.30;;;;;;5077194;28;19946;-72
2022/04/29 11:34:53;;;;;;;;;;;27.30;31.40;;;;;;5080413;28;20019;-67
2022/04/29 11:37:25;;;;;;;;;;;27.30;31.20;;;;;;5076011;28;19932;-70
2022/04/29 11:39:54;;;;;;;;;;;27.30;31.10;;;;;;5070413;28;21218;-69
2022/04/29 11:42:21;;;;;;;;;;;27.30;31.10;;;;;;5079310;28;20444;-72
2022/04/29 11:44:51;;;;;;;;;;;27.30;31.10;;;;;;5076298;28;19936;-72
2022/04/29 11:47:25;;;;;;;;;;;27.40;31.00;;;;;;5077503;28;19929;-70
2022/04/29 11:49:53;;;;;;;;;;;27.40;31.00;;;;;;5077261;28;19931;-71
2022/04/29 11:52:23;;;;;;;;;;;27.40;31.00;;;;;;5076745;28;19974;-72
2022/04/29 11:54:51;;;;;;;;;;;27.40;30.90;;;;;;5071385;28;19932;-67
2022/04/29 11:57:20;;;;;;;;;;;27.40;31.00;;;;;;5075097;28;19967;-67
2022/04/29 11:59:47;;;;;;;;;;;27.40;31.10;;;;;;5072993;28;20377;-71
2022/04/29 12:02:18;;;;;;;;;;;27.40;30.90;;;;;;5079769;28;19924;-66
2022/04/29 12:04:53;;;;;;;;;;;27.40;31.20;;;;;;5075335;28;19975;-63
2022/04/29 12:07:21;;;;;;;;;;;27.50;31.10;;;;;;5076287;28;19928;-62
2022/04/29 12:09:48;;;;;;;;;;;27.50;30.80;;;;;;5078824;28;19937;-63
2022/04/29 12:12:23;;;;;;;;;;;27.50;30.60;;;;;;5076362;28;19928;-65
2022/04/29 12:14:50;;;;;;;;;;;27.50;30.60;;;;;;5073862;28;19924;-66
2022/04/29 12:17:17;;;;;;;;;;;27.50;30.30;;;;;;5069598;28;19928;-63
2022/04/29 12:19:48;;;;;;;;;;;27.50;30.20;;;;;;5077081;28;20136;-64
2022/04/29 12:22:26;;;;;;;;;;;27.50;30.10;;;;;;5076123;28;19924;-63
2022/04/29 12:24:53;;;;;;;;;;;27.50;30.00;;;;;;5091765;28;19924;-63
2022/04/29 12:27:27;;;;;;;;;;;27.50;30.00;;;;;;5093870;28;19954;-63
2022/04/29 12:35:35;;;;;;;;;;;27.40;30.00;;;;;;5083473;28;20015;-63
2022/04/29 12:38:07;;;;;;;;;;;27.50;30.10;;;;;;5053219;28;20330;-66
2022/04/29 12:40:43;;;;;;;;;;;27.40;30.00;;;;;;5082840;28;20268;-63
2022/04/29 12:43:11;;;;;;;;;;;27.50;30.00;;;;;;5082221;28;20284;-64
2022/04/29 12:45:38;;;;;;;;;;;27.50;30.10;;;;;;5079225;28;19928;-63
2022/04/29 12:48:06;;;;;;;;;;;27.50;30.50;;;;;;5084650;28;19979;-64
2022/04/29 12:50:37;;;;;;;;;;;27.50;30.60;;;;;;5079929;28;19932;-63
2022/04/29 12:53:08;;;;;;;;;;;27.40;30.50;;;;;;5082526;28;20382;-63
2022/04/29 12:55:50;;;;;;;;;;;27.40;30.30;;;;;;5076626;28;20362;-63
2022/04/29 12:58:20;;;;;;;;;;;27.40;30.00;;;;;;5077248;28;20238;-62
2022/04/29 13:01:02;;;;;;;;;;;27.40;30.20;;;;;;5080697;28;19978;-65
2022/04/29 13:03:30;;;;;;;;;;;27.40;31.00;;;;;;5084052;28;20007;-65
2022/04/29 13:05:58;;;;;;;;;;;27.30;31.10;;;;;;5084035;28;19924;-65
2022/04/29 13:08:25;;;;;;;;;;;27.30;30.80;;;;;;5087865;28;19996;-65
2022/04/29 13:10:54;;;;;;;;;;;27.30;32.30;;;;;;5089292;28;19928;-65
2022/04/29 13:13:21;;;;;;;;;;;27.30;33.00;;;;;;5073577;28;19928;-65
2022/04/29 13:15:49;;;;;;;;;;;27.40;32.20;;;;;;5088326;28;19997;-65
2022/04/29 13:18:17;;;;;;;;;;;27.40;31.30;;;;;;5088564;28;19924;-65
2022/04/29 13:20:44;;;;;;;;;;;27.40;30.60;;;;;;5088430;28;19931;-66
2022/04/29 13:23:11;;;;;;;;;;;27.30;30.40;;;;;;5088605;28;19973;-66
2022/04/29 13:25:43;;;;;;;;;;;27.30;30.10;;;;;;5088472;28;20019;-65
2022/04/29 13:28:10;;;;;;;;;;;27.30;30.00;;;;;;5088763;28;19978;-65
2022/04/29 13:30:39;;;;;;;;;;;27.30;29.90;;;;;;5084145;28;19928;-66
2022/04/29 13:33:07;;;;;;;;;;;27.20;29.90;;;;;;5088241;28;19924;-65
2022/04/29 13:35:35;;;;;;;;;;;27.20;29.80;;;;;;5088643;28;19924;-65
2022/04/29 13:38:02;;;;;;;;;;;27.20;29.80;;;;;;5088280;28;20258;-65
2022/04/29 13:40:29;;;;;;;;;;;27.20;30.10;;;;;;5088331;28;20264;-65
2022/04/29 13:42:57;;;;;;;;;;;27.20;29.70;;;;;;5088384;28;19963;-65
2022/04/29 13:45:24;;;;;;;;;;;27.20;29.70;;;;;;5088445;28;19950;-65
2022/04/29 13:47:51;;;;;;;;;;;27.20;29.70;;;;;;5088340;28;19932;-65
2022/04/29 13:50:18;;;;;;;;;;;27.20;29.70;;;;;;5069558;28;19950;-65
2022/04/29 13:55:32;;;;;;;;;;;27.20;29.70;;;;;;5088600;28;19974;-65
2022/04/29 13:57:59;;;;;;;;;;;27.30;29.60;;;;;;5087870;28;20352;-65
2022/04/29 14:00:26;;;;;;;;;;;27.20;29.50;;;;;;5088217;28;20433;-65
2022/04/29 14:02:53;;;;;;;;;;;27.20;29.70;;;;;;5083043;28;20482;-65
2022/04/29 14:05:24;;;;;;;;;;;27.20;29.80;;;;;;5088142;28;19928;-65
2022/04/29 14:07:51;;;;;;;;;;;27.20;29.70;;;;;;5087493;28;19989;-65
2022/04/29 14:10:19;;;;;;;;;;;27.20;29.80;;;;;;5087609;28;19935;-65
2022/04/29 14:12:46;;;;;;;;;;;27.20;29.70;;;;;;5087596;28;19925;-65
2022/04/29 14:15:13;;;;;;;;;;;27.10;29.60;;;;;;5087410;28;19985;-65
2022/04/29 14:17:40;;;;;;;;;;;27.10;29.60;;;;;;5087962;28;20201;-65
2022/04/29 14:20:08;;;;;;;;;;;27.10;29.60;;;;;;5087852;28;20373;-65
2022/04/29 14:22:39;;;;;;;;;;;27.10;29.50;;;;;;5086734;28;20468;-65
2022/04/29 14:25:08;;;;;;;;;;;27.10;29.50;;;;;;5089093;28;20410;-65
2022/04/29 14:27:35;;;;;;;;;;;27.10;29.40;;;;;;5087060;28;19977;-65
2022/04/29 14:30:03;;;;;;;;;;;27.10;29.40;;;;;;5087326;28;19993;-65
2022/04/29 14:32:32;;;;;;;;;;;27.10;29.40;;;;;;5087749;28;19924;-65
2022/04/29 14:35:00;;;;;;;;;;;27.10;29.40;;;;;;5082549;28;20004;-65
2022/04/29 14:37:29;;;;;;;;;;;27.10;29.30;;;;;;5087352;28;19977;-65
2022/04/29 14:39:56;;;;;;;;;;;27.20;29.30;;;;;;5086628;28;19967;-65
2022/04/29 14:42:23;;;;;;;;;;;27.20;29.20;;;;;;5087445;28;19924;-66
2022/04/29 14:44:50;;;;;;;;;;;27.20;29.10;;;;;;5087202;28;19977;-65
2022/04/29 14:47:18;;;;;;;;;;;27.20;29.10;;;;;;5087282;28;19964;-65
2022/04/29 14:49:45;;;;;;;;;;;27.20;29.10;;;;;;5087146;28;20187;-65
2022/04/29 14:52:12;;;;;;;;;;;27.20;29.10;;;;;;5086363;28;19928;-65
2022/04/29 14:54:40;;;;;;;;;;;27.20;29.10;;;;;;5086526;28;19924;-65
2022/04/29 14:57:08;;;;;;;;;;;27.10;29.00;;;;;;5086551;28;19928;-65
2022/04/29 14:59:35;;;;;;;;;;;27.10;29.00;;;;;;5086900;28;20384;-65
2022/04/29 15:02:02;;;;;;;;;;;27.10;29.50;;;;;;5086851;28;19924;-65
2022/04/29 15:04:31;;;;;;;;;;;27.00;29.10;;;;;;5086629;28;19932;-65
2022/04/29 15:06:58;;;;;;;;;;;27.00;29.10;;;;;;5082538;28;19924;-65
2022/04/29 15:15:35;;;;;;;;;;;27.00;29.10;;;;;;5082224;28;19931;-68
2022/04/29 15:18:03;;;;;;;;;;;27.00;29.10;;;;;;5086368;28;19931;-65
2022/04/29 15:20:30;;;;;;;;;;;27.00;29.10;;;;;;5086972;28;19957;-65
2022/04/29 15:22:57;;;;;;;;;;;27.00;29.10;;;;;;5085735;28;19985;-65
2022/04/29 15:25:24;;;;;;;;;;;27.00;29.10;;;;;;5086164;28;19924;-65
2022/04/29 15:27:51;;;;;;;;;;;27.00;29.00;;;;;;5086295;28;19924;-65
2022/04/29 15:30:18;;;;;;;;;;;27.00;29.00;;;;;;5086269;28;20279;-65
2022/04/29 15:32:45;;;;;;;;;;;27.00;29.00;;;;;;5086347;28;19969;-65
2022/04/29 15:35:13;;;;;;;;;;;27.00;29.40;;;;;;5085274;28;19931;-65
2022/04/29 15:37:40;;;;;;;;;;;27.10;29.20;;;;;;5082473;28;19997;-65
2022/04/29 15:40:07;;;;;;;;;;;27.10;28.90;;;;;;5085418;28;19959;-65
2022/04/29 15:42:34;;;;;;;;;;;27.10;28.80;;;;;;5086118;28;19924;-65
2022/04/29 15:45:06;;;;;;;;;;;27.20;28.80;;;;;;5086771;28;19933;-65